Time;durP1;ratioP1;P1;durP2;ratioP2;P2;SDS_P1;SDS_P2;PMS_P1;PMS_P2;Temp;Humidity;BMP_temperature;BMP_pressure;BME280_temperature;BME280_humidity;BME280_pressure;Samples;Min_cycle;Max_cycle;Signal;HPM_P1;HPM_P2
2022/07/07 00:00:54;;;;;;;;;;;;;;;18.87;100.00;-21626.19;5069828;28;19920;-80
2022/07/07 00:03:21;;;;;;;;;;;;;;;18.89;100.00;-20633.56;5053176;28;19913;-75
2022/07/07 00:05:46;;;;;;;;;;;;;;;18.92;100.00;-18978.09;5053065;28;20381;-76
2022/07/07 00:08:12;;;;;;;;;;;;;;;18.89;100.00;-17983.75;5055903;28;19920;-77
2022/07/07 00:10:37;;;;;;;;;;;;;;;18.89;100.00;-15663.63;5056411;28;19912;-76
2022/07/07 00:13:03;;;;;;;;;;;;;;;18.84;100.00;-15331.59;5052737;28;19923;-76
2022/07/07 00:15:28;;;;;;;;;;;;;;;18.86;100.00;-15000.19;5052954;28;20311;-76
2022/07/07 00:17:53;;;;;;;;;;;;;;;18.82;100.00;-14668.16;5069097;28;20425;-78
2022/07/07 00:20:19;;;;;;;;;;;;;;;18.78;100.00;-14999.31;5052761;28;19917;-77
2022/07/07 00:22:44;;;;;;;;;;;;;;;18.79;100.00;-14336.28;5055312;28;19912;-80
2022/07/07 00:25:09;;;;;;;;;;;;;;;18.76;100.00;-12014.13;5052628;28;19916;-77
2022/07/07 00:27:35;;;;;;;;;;;;;;;18.73;100.00;-9358.81;5052062;28;19917;-76
2022/07/07 00:30:00;;;;;;;;;;;;;;;18.76;100.00;-7698.44;5055622;28;20529;-76
2022/07/07 00:32:25;;;;;;;;;;;;;;;18.68;100.00;-7034.16;5051731;28;20007;-79
2022/07/07 00:34:51;;;;;;;;;;;;;;;18.65;100.00;-4043.53;5056214;28;20363;-76
2022/07/07 00:37:16;;;;;;;;;;;;;;;18.65;100.00;-717.94;5072797;28;19998;-78
2022/07/07 00:39:41;;;;;;;;;;;;;;;18.62;100.00;1278.47;5052464;28;20020;-77
2022/07/07 00:42:06;;;;;;;;;;;;;;;18.62;100.00;4275.41;5052978;28;20349;-76
2022/07/07 00:44:32;;;;;;;;;;;;;;;18.64;100.00;6275.16;5052815;28;19927;-80
2022/07/07 00:46:58;;;;;;;;;;;;;;;18.54;100.00;7272.78;5052629;28;19963;-79
2022/07/07 00:49:23;;;;;;;;;;;;;;;18.60;100.00;8607.94;5054354;28;19920;-80
2022/07/07 00:51:49;;;;;;;;;;;;;;;18.57;100.00;8940.63;5053992;28;19983;-77
2022/07/07 00:54:16;;;;;;;;;;;;;;;18.56;100.00;11275.38;5053227;28;19913;-79
2022/07/07 00:56:42;;;;;;;;;;;;;;;18.57;100.00;13278.56;5053104;28;19913;-81
2022/07/07 00:59:07;;;;;;;;;;;;;;;18.55;100.00;15281.56;5056139;28;20288;-78
2022/07/07 01:01:42;;;;;;;;;;;;;;;18.52;100.00;15280.28;5052935;28;20003;-81
2022/07/07 01:04:10;;;;;;;;;;;;;;;18.44;100.00;12940.34;5052323;28;19912;-81
2022/07/07 01:06:36;;;;;;;;;;;;;;;18.40;100.00;8602.66;5052894;28;19913;-80
2022/07/07 01:09:01;;;;;;;;;;;;;;;18.40;100.00;7602.78;5053341;28;20323;-80
2022/07/07 01:11:26;;;;;;;;;;;;;;;18.37;100.00;4603.59;5053160;28;19917;-79
2022/07/07 01:13:56;;;;;;;;;;;;;;;18.31;100.00;2937.91;5069229;28;19920;-79
2022/07/07 01:16:24;;;;;;;;;;;;;;;18.23;100.00;607.69;5053396;28;19920;-80
2022/07/07 01:18:49;;;;;;;;;;;;;;;18.11;100.00;-2385.56;5053037;28;20016;-81
2022/07/07 01:24:11;;;;;;;;;;;;;;;17.83;100.00;-11013.72;5027910;28;19978;-78
2022/07/07 01:26:38;;;;;;;;;;;;;;;17.84;100.00;-14657.41;5050744;28;19921;-80
2022/07/07 01:29:03;;;;;;;;;;;;;;;17.83;100.00;-16643.16;5053658;28;19913;-77
2022/07/07 01:31:28;;;;;;;;;;;;;;;17.75;100.00;-17965.34;5054256;28;19923;-76
2022/07/07 01:33:54;;;;;;;;;;;;;;;17.71;100.00;-18626.00;5054594;28;19912;-79
2022/07/07 01:36:19;;;;;;;;;;;;;;;17.64;100.00;-18955.34;5055341;28;19912;-74
2022/07/07 01:38:44;;;;;;;;;;;;;;;17.64;100.00;-19947.13;5054347;28;19920;-79
2022/07/07 01:41:10;;;;;;;;;;;;;;;17.66;100.00;-20938.88;5054956;28;19916;-78
2022/07/07 01:43:35;;;;;;;;;;;;;;;17.55;100.00;-23248.59;5053733;28;19912;-79
2022/07/07 01:46:00;;;;;;;;;;;;;;;17.44;100.00;-25558.06;5054457;28;19912;-78
2022/07/07 01:48:26;;;;;;;;;;;;;;;17.31;100.00;-25554.28;5071127;28;19916;-78
2022/07/07 01:50:51;;;;;;;;;;;;;;;17.27;100.00;-25553.13;5054147;28;19916;-77
2022/07/07 01:53:16;;;;;;;;;;;;;;;17.17;100.00;-25550.53;5053526;28;19916;-75
2022/07/07 01:55:41;;;;;;;;;;;;;;;17.25;100.00;-25552.56;5054042;28;19919;-77
2022/07/07 01:58:07;;;;;;;;;;;;;;;17.13;100.00;-25549.38;5054377;28;20007;-75
2022/07/07 02:00:32;;;;;;;;;;;;;;;17.09;100.00;-25548.22;5052803;28;19951;-76
2022/07/07 02:02:58;;;;;;;;;;;;;;;17.14;100.00;-25549.66;5054317;28;19912;-76
2022/07/07 02:05:24;;;;;;;;;;;;;;;17.15;100.00;-25549.94;5054739;28;19920;-76
2022/07/07 02:07:49;;;;;;;;;;;;;;;17.08;100.00;-25547.91;5053322;28;19916;-76
2022/07/07 02:11:12;;;;;;;;;;;;;;;17.05;100.00;-25547.03;5053744;28;20654;-76
2022/07/07 02:13:00;;;;;;;;;;;;;;;16.99;100.00;-25545.31;5070304;28;19908;-75
2022/07/07 02:15:26;;;;;;;;;;;;;;;16.95;100.00;-25544.16;5053575;28;20364;-76
2022/07/07 02:17:51;;;;;;;;;;;;;;;16.85;100.00;-25541.53;5053333;28;19977;-77
2022/07/07 02:20:16;;;;;;;;;;;;;;;16.88;100.00;-25542.25;5053978;28;19942;-77
2022/07/07 02:22:44;;;;;;;;;;;;;;;16.90;100.00;-25542.69;5054122;28;19916;-78
2022/07/07 02:25:09;;;;;;;;;;;;;;;16.94;100.00;-25544.00;5053845;28;19912;-80
2022/07/07 02:27:36;;;;;;;;;;;;;;;16.89;100.00;-25542.41;5053071;28;19913;-78
2022/07/07 02:30:01;;;;;;;;;;;;;;;16.84;100.00;-25541.25;5053837;28;19977;-79
2022/07/07 02:32:26;;;;;;;;;;;;;;;16.93;100.00;-25543.56;5051553;28;20357;-80
2022/07/07 02:34:52;;;;;;;;;;;;;;;16.95;100.00;-25544.16;5053727;28;19955;-80
2022/07/07 02:37:17;;;;;;;;;;;;;;;16.98;100.00;-25545.16;5055532;28;20404;-80
2022/07/07 02:39:42;;;;;;;;;;;;;;;16.98;100.00;-25545.16;5053407;28;19912;-75
2022/07/07 02:42:07;;;;;;;;;;;;;;;16.96;100.00;-25544.56;5050138;28;19969;-78
2022/07/07 02:44:36;;;;;;;;;;;;;;;16.89;100.00;-25542.41;5050484;28;19909;-78
2022/07/07 02:47:01;;;;;;;;;;;;;;;16.84;100.00;-25541.25;5050994;28;19913;-80
2022/07/07 02:49:26;;;;;;;;;;;;;;;16.78;100.00;-25539.50;5051284;28;19913;-79
2022/07/07 02:51:51;;;;;;;;;;;;;;;16.73;100.00;-25538.03;5051135;28;20345;-81
2022/07/07 02:54:17;;;;;;;;;;;;;;;16.69;100.00;-25536.88;5052075;28;19948;-77
2022/07/07 02:56:42;;;;;;;;;;;;;;;16.68;100.00;-25536.59;5054112;28;20280;-81
2022/07/07 02:59:08;;;;;;;;;;;;;;;16.70;100.00;-25537.16;5055440;28;20268;-80
2022/07/07 03:01:33;;;;;;;;;;;;;;;16.65;100.00;-25535.72;5054277;28;19976;-82
2022/07/07 03:04:01;;;;;;;;;;;;;;;16.48;100.00;-25531.09;5055331;28;19912;-82
2022/07/07 03:06:26;;;;;;;;;;;;;;;16.31;100.00;-25526.13;5054768;28;19913;-76
2022/07/07 03:08:52;;;;;;;;;;;;;;;16.15;100.00;-25521.78;5057829;28;19966;-76
2022/07/07 03:11:17;;;;;;;;;;;;;;;16.11;100.00;-25520.47;5054853;28;19913;-77
2022/07/07 03:13:44;;;;;;;;;;;;;;;16.02;100.00;-25518.00;5055020;28;19916;-81
2022/07/07 03:16:09;;;;;;;;;;;;;;;15.88;100.00;-25514.09;5058202;28;20019;-83
2022/07/07 03:18:35;;;;;;;;;;;;;;;15.84;100.00;-25512.91;5058440;28;19948;-82
2022/07/07 03:21:00;;;;;;;;;;;;;;;15.76;100.00;-25510.72;5056870;28;19928;-85
2022/07/07 03:23:25;;;;;;;;;;;;;;;15.83;100.00;-25512.63;5055043;28;19919;-84
2022/07/07 03:25:50;;;;;;;;;;;;;;;15.79;100.00;-25511.47;5055718;28;20764;-83
2022/07/07 03:28:16;;;;;;;;;;;;;;;15.77;100.00;-25511.03;5055392;28;20373;-82
2022/07/07 03:30:41;;;;;;;;;;;;;;;15.69;100.00;-25508.56;5055298;28;19940;-83
2022/07/07 03:33:07;;;;;;;;;;;;;;;15.75;100.00;-25510.31;5055338;28;19919;-84
2022/07/07 03:35:32;;;;;;;;;;;;;;;15.77;100.00;-25510.88;5055076;28;20349;-83
2022/07/07 03:37:57;;;;;;;;;;;;;;;15.74;100.00;-25510.16;5055193;28;20339;-82
2022/07/07 03:40:22;;;;;;;;;;;;;;;15.73;100.00;-25509.88;5055272;28;20434;-83
2022/07/07 03:42:52;;;;;;;;;;;;;;;15.77;100.00;-25510.88;5057901;28;19970;-84
2022/07/07 03:45:17;;;;;;;;;;;;;;;15.77;100.00;-25510.88;5038452;28;19920;-82
2022/07/07 03:47:43;;;;;;;;;;;;;;;15.73;100.00;-25509.88;5038812;28;19995;-85
2022/07/07 03:50:08;;;;;;;;;;;;;;;15.79;100.00;-25511.63;5039109;28;19919;-83
2022/07/07 03:52:33;;;;;;;;;;;;;;;15.80;100.00;-25511.75;5047045;28;20380;-83
2022/07/07 03:54:59;;;;;;;;;;;;;;;15.74;100.00;-25510.00;5053000;28;19965;-74
2022/07/07 03:57:24;;;;;;;;;;;;;;;15.75;100.00;-25510.44;5054245;28;19924;-83
2022/07/07 03:59:49;;;;;;;;;;;;;;;15.74;100.00;-25510.00;5054295;28;19917;-84
2022/07/07 04:02:15;;;;;;;;;;;;;;;15.75;100.00;-25510.44;5055017;28;19920;-83
2022/07/07 04:04:44;;;;;;;;;;;;;;;15.76;100.00;-25510.59;5057057;28;19912;-85
2022/07/07 04:07:10;;;;;;;;;;;;;;;15.78;100.00;-25511.19;5057645;28;19919;-85
2022/07/07 04:09:35;;;;;;;;;;;;;;;15.81;100.00;-25512.06;5057362;28;19912;-84
2022/07/07 04:12:00;;;;;;;;;;;;;;;15.84;100.00;-25512.78;5057120;28;19947;-84
2022/07/07 04:14:27;;;;;;;;;;;;;;;15.82;100.00;-25512.19;5054313;28;19920;-83
2022/07/07 04:16:52;;;;;;;;;;;;;;;15.88;100.00;-25513.94;5054509;28;19942;-75
2022/07/07 04:19:17;;;;;;;;;;;;;;;15.94;100.00;-25515.84;5054424;28;19916;-85
2022/07/07 04:21:42;;;;;;;;;;;;;;;15.84;100.00;-25512.78;5057604;28;19912;-85
2022/07/07 04:24:09;;;;;;;;;;;;;;;15.82;100.00;-25512.19;5052963;28;20384;-83
2022/07/07 04:26:35;;;;;;;;;;;;;;;15.86;100.00;-25513.34;5050786;28;19920;-76
2022/07/07 04:29:00;;;;;;;;;;;;;;;15.83;100.00;-25512.50;5055005;28;19913;-76
2022/07/07 04:31:26;;;;;;;;;;;;;;;15.74;100.00;-25510.00;5055152;28;20364;-78
2022/07/07 04:33:52;;;;;;;;;;;;;;;15.64;100.00;-25507.25;5055459;28;19917;-75
2022/07/07 04:36:18;;;;;;;;;;;;;;;15.56;100.00;-25504.91;5055693;28;19913;-85
2022/07/07 04:38:43;;;;;;;;;;;;;;;15.54;100.00;-25504.34;5055951;28;20254;-78
2022/07/07 04:41:08;;;;;;;;;;;;;;;15.56;100.00;-25505.06;5054662;28;19920;-73
2022/07/07 04:43:35;;;;;;;;;;;;;;;15.53;100.00;-25504.19;5055618;28;19912;-76
2022/07/07 04:46:00;;;;;;;;;;;;;;;15.47;100.00;-25502.44;5056228;28;19970;-79
2022/07/07 04:48:25;;;;;;;;;;;;;;;15.44;100.00;-25501.56;5055640;28;19912;-79
2022/07/07 04:50:50;;;;;;;;;;;;;;;15.46;100.00;-25502.00;5055419;28;19916;-79
2022/07/07 04:53:16;;;;;;;;;;;;;;;15.46;100.00;-25502.16;5054999;28;19916;-81
2022/07/07 04:55:41;;;;;;;;;;;;;;;15.46;100.00;-25502.16;5055381;28;19970;-78
2022/07/07 04:58:06;;;;;;;;;;;;;;;15.46;100.00;-25502.00;5055086;28;19966;-80
2022/07/07 05:00:32;;;;;;;;;;;;;;;15.50;100.00;-25503.31;5054956;28;20431;-82
2022/07/07 05:02:57;;;;;;;;;;;;;;;15.56;100.00;-25504.91;5055289;28;19916;-78
2022/07/07 05:05:22;;;;;;;;;;;;;;;15.46;100.00;-25502.16;5054867;28;19952;-75
2022/07/07 05:07:47;;;;;;;;;;;;;;;15.47;100.00;-25502.31;5054423;28;19965;-79
2022/07/07 05:10:13;;;;;;;;;;;;;;;15.51;100.00;-25503.63;5055716;28;19948;-77
2022/07/07 05:12:38;;;;;;;;;;;;;;;15.55;100.00;-25504.78;5088286;28;19927;-81
2022/07/07 05:15:04;;;;;;;;;;;;;;;15.58;100.00;-25505.50;5054231;28;20284;-78
2022/07/07 05:17:29;;;;;;;;;;;;;;;15.53;100.00;-25504.06;5055157;28;19960;-76
2022/07/07 05:19:54;;;;;;;;;;;;;;;15.58;100.00;-25505.50;5054816;28;19915;-81
2022/07/07 05:22:20;;;;;;;;;;;;;;;15.57;100.00;-25505.34;5054806;28;19920;-83
2022/07/07 05:24:46;;;;;;;;;;;;;;;15.46;100.00;-25502.16;5055269;28;19912;-79
2022/07/07 05:27:12;;;;;;;;;;;;;;;15.55;100.00;-25504.63;5055289;28;20423;-83
2022/07/07 05:29:37;;;;;;;;;;;;;;;15.46;100.00;-25502.16;5055016;28;19916;-81
2022/07/07 05:32:03;;;;;;;;;;;;;;;15.51;100.00;-25503.47;5055189;28;19969;-82
2022/07/07 05:34:29;;;;;;;;;;;;;;;15.52;100.00;-25503.91;5055298;28;19923;-84
2022/07/07 05:36:54;;;;;;;;;;;;;;;15.42;100.00;-25501.13;5055102;28;20023;-77
2022/07/07 05:39:19;;;;;;;;;;;;;;;15.47;100.00;-25502.31;5055589;28;20015;-76
2022/07/07 05:41:45;;;;;;;;;;;;;;;15.46;100.00;-25502.00;5054778;28;19934;-79
2022/07/07 05:44:13;;;;;;;;;;;;;;;15.64;100.00;-25507.25;5054812;28;19916;-83
2022/07/07 05:46:38;;;;;;;;;;;;;;;15.49;100.00;-25502.88;5088457;28;19939;-84
2022/07/07 05:49:03;;;;;;;;;;;;;;;15.55;100.00;-25504.78;5072011;28;20388;-77
2022/07/07 05:51:29;;;;;;;;;;;;;;;15.55;100.00;-25504.78;5055334;28;20015;-83
2022/07/07 05:53:54;;;;;;;;;;;;;;;15.57;100.00;-25505.22;5055208;28;19912;-81
2022/07/07 05:56:19;;;;;;;;;;;;;;;15.59;100.00;-25505.78;5055331;28;19955;-80
2022/07/07 05:58:45;;;;;;;;;;;;;;;16.03;100.00;-25518.28;5054669;28;19920;-84
2022/07/07 06:01:11;;;;;;;;;;;;;;;16.27;100.00;-25524.97;5054981;28;19927;-84
2022/07/07 06:03:38;;;;;;;;;;;;;;;16.21;100.00;-25523.38;5055471;28;19953;-82
2022/07/07 06:06:04;;;;;;;;;;;;;;;16.13;100.00;-25521.19;5052737;28;19923;-83
2022/07/07 06:08:29;;;;;;;;;;;;;;;15.89;100.00;-25514.38;5055053;28;20012;-77
2022/07/07 06:10:54;;;;;;;;;;;;;;;15.59;100.00;-25505.94;5070766;28;19923;-83
2022/07/07 06:13:22;;;;;;;;;;;;;;;15.34;100.00;-25498.81;5057457;28;19994;-80
2022/07/07 06:15:47;;;;;;;;;;;;;;;15.37;100.00;-25499.69;5054945;28;19916;-83
2022/07/07 06:18:13;;;;;;;;;;;;;;;15.80;100.00;-25511.75;5055651;28;19916;-85
2022/07/07 06:20:38;;;;;;;;;;;;;;;15.74;100.00;-25510.00;5055219;28;19920;-78
2022/07/07 06:23:04;;;;;;;;;;;;;;;15.57;100.00;-25505.22;5050403;28;19931;-83
2022/07/07 06:25:29;;;;;;;;;;;;;;;15.49;100.00;-25502.88;5053105;28;19920;-82
2022/07/07 06:27:56;;;;;;;;;;;;;;;15.38;100.00;-25499.81;5054679;28;19958;-79
2022/07/07 06:30:21;;;;;;;;;;;;;;;15.47;100.00;-25502.44;5055860;28;19920;-79
2022/07/07 06:32:48;;;;;;;;;;;;;;;15.71;100.00;-25509.28;5058136;28;19961;-77
2022/07/07 06:35:14;;;;;;;;;;;;;;;15.84;100.00;-25512.91;5057512;28;19915;-79
2022/07/07 06:37:39;;;;;;;;;;;;;;;16.01;100.00;-25517.56;5058619;28;19931;-77
2022/07/07 06:40:05;;;;;;;;;;;;;;;16.13;100.00;-25521.19;5057899;28;20308;-79
2022/07/07 06:42:31;;;;;;;;;;;;;;;16.24;100.00;-25524.25;5058785;28;19912;-82
2022/07/07 06:45:00;;;;;;;;;;;;;;;16.31;100.00;-25526.13;5061646;28;19916;-80
2022/07/07 06:47:25;;;;;;;;;;;;;;;16.07;100.00;-25519.47;5040735;28;19920;-77
2022/07/07 06:49:50;;;;;;;;;;;;;;;15.90;100.00;-25514.66;5055975;28;20003;-81
2022/07/07 06:52:16;;;;;;;;;;;;;;;16.06;100.00;-25519.16;5061691;28;19934;-77
2022/07/07 06:54:43;;;;;;;;;;;;;;;16.53;100.00;-25532.38;5058770;28;19913;-76
2022/07/07 06:57:08;;;;;;;;;;;;;;;17.01;100.00;-25546.03;5059493;28;19934;-83
2022/07/07 06:59:35;;;;;;;;;;;;;;;17.01;100.00;-25545.88;5059698;28;19909;-77
2022/07/07 07:02:01;;;;;;;;;;;;;;;17.39;100.00;-25556.63;5057731;28;20006;-79
2022/07/07 07:04:26;;;;;;;;;;;;;;;17.33;100.00;-25554.88;5058266;28;19967;-78
2022/07/07 07:06:52;;;;;;;;;;;;;;;16.96;100.00;-25544.56;5057150;28;19916;-79
2022/07/07 07:09:17;;;;;;;;;;;;;;;16.72;100.00;-25537.75;5057711;28;19935;-81
2022/07/07 07:11:45;;;;;;;;;;;;;;;16.22;100.00;-25523.53;5057829;28;19970;-76
2022/07/07 07:14:13;;;;;;;;;;;;;;;16.26;100.00;-25524.84;5057807;28;20360;-79
2022/07/07 07:16:38;;;;;;;;;;;;;;;16.07;100.00;-25519.31;5058563;28;19917;-78
2022/07/07 07:19:04;;;;;;;;;;;;;;;16.08;100.00;-25519.75;5058055;28;19915;-77
2022/07/07 07:21:29;;;;;;;;;;;;;;;16.13;100.00;-25521.19;5037929;28;19960;-81
2022/07/07 07:23:55;;;;;;;;;;;;;;;16.09;100.00;-25519.91;5057841;28;19954;-78
2022/07/07 07:26:21;;;;;;;;;;;;;;;16.15;100.00;-25521.63;5056929;28;19916;-78
2022/07/07 07:28:47;;;;;;;;;;;;;;;16.38;100.00;-25528.03;5056541;28;19978;-79
2022/07/07 07:31:13;;;;;;;;;;;;;;;16.79;100.00;-25539.78;5046103;28;19923;-78
2022/07/07 07:33:42;;;;;;;;;;;;;;;17.81;100.00;-25568.50;5035966;28;20003;-76
2022/07/07 07:36:09;;;;;;;;;;;;;;;18.29;100.00;-25581.97;5054241;28;19920;-80
2022/07/07 07:38:35;;;;;;;;;;;;;;;18.19;100.00;-24916.59;5034234;28;19913;-77
2022/07/07 07:41:01;;;;;;;;;;;;;;;17.99;100.00;-19292.44;5036564;28;19916;-79
2022/07/07 07:43:28;;;;;;;;;;;;;;;18.49;100.00;-14001.66;5019180;28;19948;-78
2022/07/07 07:45:53;;;;;;;;;;;;;;;18.71;100.00;-7034.13;5023502;28;19917;-82
2022/07/07 07:48:18;;;;;;;;;;;;;;;17.92;100.00;-3051.47;5017656;28;19990;-82
2022/07/07 07:50:44;;;;;;;;;;;;;;;17.64;100.00;-3385.47;5026424;28;19916;-82
2022/07/07 07:53:10;;;;;;;;;;;;;;;18.06;100.00;-6371.03;5037402;28;19913;-81
2022/07/07 07:55:35;;;;;;;;;;;;;;;18.53;100.00;-7034.31;5037281;28;19917;-78
2022/07/07 07:58:01;;;;;;;;;;;;;;;18.67;100.00;1612.03;5037423;28;19923;-80
2022/07/07 08:00:26;;;;;;;;;;;;;;;19.31;100.00;6623.44;5033435;28;19986;-77
2022/07/07 08:02:51;;;;;;;;;;;;;;;19.93;100.00;13658.16;5053800;28;20245;-79
2022/07/07 08:05:17;;;;;;;;;;;;;;;20.10;100.00;32116.56;5036125;28;19963;-81
2022/07/07 08:07:43;;;;;;;;;;;;;;;19.02;100.00;41460.13;5035252;28;19913;-79
2022/07/07 08:10:09;;;;;;;;;;;;;;;18.18;100.00;32666.59;5036312;28;19913;-78
2022/07/07 08:12:35;;;;;;;;;;;;;;;17.49;100.00;18913.16;5035405;28;20332;-78
2022/07/07 08:15:01;;;;;;;;;;;;;;;17.16;100.00;2918.78;5036022;28;19912;-82
2022/07/07 08:17:26;;;;;;;;;;;;;;;16.93;100.00;-11339.84;5036193;28;20371;-82
2022/07/07 08:19:52;;;;;;;;;;;;;;;16.55;100.00;-20915.63;5037516;28;20328;-80
2022/07/07 08:22:17;;;;;;;;;;;;;;;16.71;100.00;-25537.47;5036548;28;19917;-78
2022/07/07 08:24:44;;;;;;;;;;;;;;;16.92;100.00;-25543.28;5040262;28;19969;-79
2022/07/07 08:27:10;;;;;;;;;;;;;;;17.88;100.00;-25570.53;5053887;28;19919;-81
2022/07/07 08:29:39;;;;;;;;;;;;;;;18.26;100.00;-25581.22;5034132;28;19917;-81
2022/07/07 08:32:10;;;;;;;;;;;;;;;17.71;100.00;-25565.75;5032886;28;19913;-79
2022/07/07 08:34:36;;;;;;;;;;;;;;;17.30;100.00;-25554.00;5036652;28;20345;-81
2022/07/07 08:37:01;;;;;;;;;;;;;;;17.24;100.00;-25552.41;5042272;28;19929;-83
2022/07/07 08:39:26;;;;;;;;;;;;;;;17.46;100.00;-25558.50;5057190;28;19913;-81
2022/07/07 08:41:52;;;;;;;;;;;;;;;17.76;100.00;-25567.19;5056731;28;20368;-82
2022/07/07 08:44:19;;;;;;;;;;;;;;;18.64;100.00;-25591.94;5040547;28;19917;-81
2022/07/07 08:46:48;;;;;;;;;;;;;;;18.57;100.00;-25587.84;5056838;28;20430;-82
2022/07/07 08:49:13;;;;;;;;;;;;;;;18.21;100.00;-20619.75;5054057;28;19913;-79
2022/07/07 08:51:43;;;;;;;;;;;;;;;17.94;100.00;-21936.53;5052344;28;19923;-80
2022/07/07 08:54:09;;;;;;;;;;;;;;;17.83;100.00;-23585.84;5051861;28;19913;-77
2022/07/07 08:56:35;;;;;;;;;;;;;;;17.94;100.00;-25572.13;5086295;28;20057;-79
2022/07/07 08:59:02;;;;;;;;;;;;;;;17.93;100.00;-25571.97;5085783;28;20011;-80
2022/07/07 09:01:29;;;;;;;;;;;;;;;17.92;100.00;-23918.50;5054159;28;20039;-81
2022/07/07 09:03:56;;;;;;;;;;;;;;;17.85;100.00;-21273.50;5052825;28;19966;-77
2022/07/07 09:06:21;;;;;;;;;;;;;;;17.83;100.00;-20942.41;5053116;28;19912;-78
2022/07/07 09:08:46;;;;;;;;;;;;;;;17.82;100.00;-21272.72;5053385;28;19995;-80
2022/07/07 09:11:12;;;;;;;;;;;;;;;18.02;100.00;-22929.75;5036134;28;19924;-79
2022/07/07 09:13:39;;;;;;;;;;;;;;;18.12;100.00;-22601.72;5052230;28;19919;-80
2022/07/07 09:16:13;;;;;;;;;;;;;;;18.16;100.00;-22271.88;5053458;28;20333;-80
2022/07/07 09:18:39;;;;;;;;;;;;;;;17.94;100.00;-22927.78;5053333;28;19913;-80
2022/07/07 09:21:06;;;;;;;;;;;;;;;17.34;100.00;-22583.34;5052372;28;19919;-80
2022/07/07 09:23:35;;;;;;;;;;;;;;;16.96;100.00;-25542.66;5052722;28;19979;-82
2022/07/07 09:26:01;;;;;;;;;;;;;;;17.33;100.00;-25555.00;5052412;28;20113;-79
2022/07/07 09:28:27;;;;;;;;;;;;;;;17.87;100.00;-25570.22;5052739;28;19913;-83
2022/07/07 09:30:54;;;;;;;;;;;;;;;18.05;100.00;-25575.31;5045053;28;20003;-80
2022/07/07 09:33:26;;;;;;;;;;;;;;;17.85;100.00;-25569.66;5034052;28;19920;-77
2022/07/07 09:38:39;;;;;;;;;;;;;;;17.28;100.00;-25553.44;5053732;28;19936;-78
2022/07/07 09:41:12;;;;;;;;;;;;;;;17.37;100.00;-25556.03;5036719;28;19920;-78
2022/07/07 09:43:42;;;;;;;;;;;;;;;17.59;100.00;-25562.41;5033071;28;19916;-79
2022/07/07 09:46:15;;;;;;;;;;;;;;;17.56;100.00;-25559.47;5069713;28;19920;-78
2022/07/07 09:48:45;;;;;;;;;;;;;;;17.64;100.00;-23581.09;5035531;28;19917;-77
2022/07/07 09:51:11;;;;;;;;;;;;;;;17.59;100.00;-21598.22;5034997;28;19975;-77
2022/07/07 09:53:55;;;;;;;;;;;;;;;17.46;100.00;-19613.09;5023549;28;19912;-78
2022/07/07 09:56:21;;;;;;;;;;;;;;;17.04;100.00;-19275.09;5035234;28;19924;-78
2022/07/07 09:58:47;;;;;;;;;;;;;;;16.63;100.00;-25535.16;5034606;28;19908;-76
2022/07/07 10:01:12;;;;;;;;;;;;;;;16.51;100.00;-25531.94;5033948;28;19912;-76
2022/07/07 10:03:39;;;;;;;;;;;;;;;16.59;100.00;-25534.13;5035447;28;19917;-77
2022/07/07 10:06:04;;;;;;;;;;;;;;;16.77;100.00;-25539.22;5035345;28;19924;-74
2022/07/07 10:08:30;;;;;;;;;;;;;;;17.01;100.00;-25545.88;5030492;28;20457;-78
2022/07/07 10:10:56;;;;;;;;;;;;;;;17.41;100.00;-25557.34;5052141;28;20011;-77
2022/07/07 10:13:25;;;;;;;;;;;;;;;17.54;100.00;-25560.81;5069132;28;19921;-81
2022/07/07 10:15:50;;;;;;;;;;;;;;;17.48;100.00;-25559.06;5034570;28;19927;-81
2022/07/07 10:18:17;;;;;;;;;;;;;;;17.52;100.00;-25560.22;5034340;28;19916;-82
2022/07/07 10:20:44;;;;;;;;;;;;;;;17.53;100.00;-25560.53;5035099;28;20044;-80
2022/07/07 10:23:11;;;;;;;;;;;;;;;17.37;100.00;-25556.19;5034110;28;19912;-76
2022/07/07 10:25:37;;;;;;;;;;;;;;;17.52;100.00;-25560.38;5034004;28;19966;-77
2022/07/07 10:28:02;;;;;;;;;;;;;;;17.89;100.00;-25570.81;5040179;28;20388;-77
2022/07/07 10:30:29;;;;;;;;;;;;;;;18.34;100.00;-25581.47;5024821;28;19917;-77
2022/07/07 10:32:56;;;;;;;;;;;;;;;18.81;100.00;-22286.97;5033812;28;19912;-78
2022/07/07 10:35:23;;;;;;;;;;;;;;;19.34;100.00;-18985.66;5033852;28;19952;-76
2022/07/07 10:37:49;;;;;;;;;;;;;;;19.10;100.00;-8030.78;5033774;28;19916;-75
2022/07/07 10:40:19;;;;;;;;;;;;;;;18.40;100.00;609.84;5033697;28;19932;-74
2022/07/07 10:42:51;;;;;;;;;;;;;;;18.02;100.00;-2718.59;5033413;28;19986;-77
2022/07/07 10:45:17;;;;;;;;;;;;;;;17.81;100.00;-5044.19;5060628;28;19921;-75
2022/07/07 10:47:42;;;;;;;;;;;;;;;17.46;100.00;-14322.25;5013749;28;19917;-75
2022/07/07 10:50:28;;;;;;;;;;;;;;;17.27;100.00;-24231.63;5027429;28;19920;-82
2022/07/07 10:52:54;;;;;;;;;;;;;;;17.45;100.00;-25558.19;5029814;28;19913;-75
2022/07/07 10:55:20;;;;;;;;;;;;;;;17.79;100.00;-25567.91;5030263;28;19921;-74
2022/07/07 10:57:46;;;;;;;;;;;;;;;18.50;100.00;-25587.88;5030333;28;19913;-74
2022/07/07 11:00:19;;;;;;;;;;;;;;;18.89;100.00;-25598.88;5035353;28;19962;-77
2022/07/07 11:02:53;;;;;;;;;;;;;;;19.11;100.00;-25605.09;5046408;28;19909;-74
2022/07/07 11:05:18;;;;;;;;;;;;;;;18.72;100.00;-23938.72;5033207;28;20019;-75
2022/07/07 11:07:55;;;;;;;;;;;;;;;18.09;100.00;-23922.84;5067369;28;19971;-79
2022/07/07 11:10:20;;;;;;;;;;;;;;;17.07;100.00;-25547.63;5068626;28;20450;-75
2022/07/07 11:12:52;;;;;;;;;;;;;;;16.90;100.00;-25542.69;5035290;28;19909;-78
2022/07/07 11:15:21;;;;;;;;;;;;;;;17.29;100.00;-25553.72;5033659;28;19912;-73
2022/07/07 11:17:49;;;;;;;;;;;;;;;17.65;100.00;-25564.00;5067420;28;20353;-76
2022/07/07 11:20:15;;;;;;;;;;;;;;;18.14;100.00;-25577.75;5036253;28;19909;-75
2022/07/07 11:22:53;;;;;;;;;;;;;;;18.62;100.00;-25591.34;5033502;28;19982;-76
2022/07/07 11:25:20;;;;;;;;;;;;;;;18.62;100.00;-23936.38;5033919;28;19912;-77
2022/07/07 11:27:46;;;;;;;;;;;;;;;18.36;100.00;-23268.41;5032312;28;19919;-77
2022/07/07 11:30:12;;;;;;;;;;;;;;;17.60;100.00;-25562.56;5048226;28;19977;-77
2022/07/07 11:32:38;;;;;;;;;;;;;;;17.33;100.00;-25555.00;5088750;28;19917;-75
2022/07/07 11:35:10;;;;;;;;;;;;;;;17.01;100.00;-25545.88;5056327;28;19922;-77
2022/07/07 11:37:37;;;;;;;;;;;;;;;17.03;100.00;-25546.47;5057167;28;19966;-76
2022/07/07 11:40:22;;;;;;;;;;;;;;;17.17;100.00;-25550.38;5057568;28;20318;-83
2022/07/07 11:42:50;;;;;;;;;;;;;;;17.23;100.00;-25552.25;5036455;28;19986;-77
2022/07/07 11:45:25;;;;;;;;;;;;;;;17.35;100.00;-25555.59;5037781;28;20003;-76
2022/07/07 11:47:51;;;;;;;;;;;;;;;17.87;100.00;-25570.22;5071384;28;19920;-76
2022/07/07 11:50:16;;;;;;;;;;;;;;;18.30;100.00;-25582.41;5076854;28;20432;-76
2022/07/07 11:52:52;;;;;;;;;;;;;;;18.44;100.00;-25586.16;5076882;28;19912;-77
2022/07/07 11:55:19;;;;;;;;;;;;;;;18.47;100.00;-20294.06;5062342;28;19916;-76
2022/07/07 11:57:51;;;;;;;;;;;;;;;18.40;100.00;-16320.06;5056379;28;19912;-76
2022/07/07 12:00:18;;;;;;;;;;;;;;;18.07;100.00;-5707.09;5056935;28;19919;-75
2022/07/07 12:02:45;;;;;;;;;;;;;;;18.06;100.00;1270.56;5056423;28;20379;-74
2022/07/07 12:05:11;;;;;;;;;;;;;;;17.98;100.00;10258.13;5056941;28;19917;-75
2022/07/07 12:07:37;;;;;;;;;;;;;;;18.22;100.00;18609.47;5055725;28;19912;-76
2022/07/07 12:10:02;;;;;;;;;;;;;;;18.44;100.00;26314.28;5056836;28;19913;-80
2022/07/07 12:12:29;;;;;;;;;;;;;;;18.45;100.00;30671.34;5056431;28;19934;-76
2022/07/07 12:14:54;;;;;;;;;;;;;;;18.63;100.00;31688.59;5055971;28;19959;-77
2022/07/07 12:17:33;;;;;;;;;;;;;;;18.52;100.00;43102.53;5056742;28;20475;-76
2022/07/07 12:19:58;;;;;;;;;;;;;;;18.78;100.00;59986.63;5057403;28;19947;-79
2022/07/07 12:22:34;;;;;;;;;;;;;;;18.78;100.00;58972.81;5056612;28;19917;-77
2022/07/07 12:25:01;;;;;;;;;;;;;;;18.67;100.00;70125.56;5074263;28;19919;-77
2022/07/07 12:27:26;;;;;;;;;;;;;;;18.84;100.00;77269.97;5056373;28;19955;-78
2022/07/07 12:29:58;;;;;;;;;;;;;;;18.91;100.00;87817.91;5056632;28;20062;-77